createdAt,value
2019-02-22T00:01:10.969Z,41.27
2019-02-22T00:06:35.606Z,49.10
2019-02-22T00:12:00.301Z,46.70
2019-02-22T00:17:24.219Z,35.03
2019-02-22T00:22:48.271Z,32.17
2019-02-22T00:28:13.196Z,26.47
2019-02-22T00:33:37.334Z,34.00
2019-02-22T00:39:01.836Z,28.47
2019-02-22T00:44:27.158Z,29.67
2019-02-22T00:49:51.560Z,26.90
2019-02-22T00:55:15.360Z,27.03
2019-02-22T01:00:39.712Z,24.13
2019-02-22T01:06:04.215Z,23.00
2019-02-22T01:11:28.337Z,25.10
2019-02-22T01:16:52.940Z,26.63
2019-02-22T01:22:17.329Z,24.03
2019-02-22T01:27:42.395Z,20.57
2019-02-22T01:33:06.931Z,25.00
2019-02-22T01:38:30.609Z,21.27
2019-02-22T01:43:54.847Z,20.60
2019-02-22T01:49:19.857Z,19.53
2019-02-22T01:54:44.555Z,19.07
2019-02-22T02:00:10.812Z,18.00
2019-02-22T02:05:35.314Z,19.23
2019-02-22T02:11:00.023Z,17.87
2019-02-22T02:16:24.577Z,14.67
2019-02-22T02:21:49.047Z,15.70
2019-02-22T02:27:12.995Z,14.57
2019-02-22T02:32:37.502Z,14.83
2019-02-22T02:38:02.205Z,15.07
2019-02-22T02:43:26.644Z,12.20
2019-02-22T02:48:51.107Z,13.73
2019-02-22T02:54:15.626Z,11.77
2019-02-22T02:59:40.304Z,11.03
2019-02-22T03:05:05.234Z,11.20
2019-02-22T03:10:31.540Z,10.27
2019-02-22T03:15:56.152Z,8.40
2019-02-22T03:21:20.965Z,11.00
2019-02-22T03:26:45.110Z,8.87
2019-02-22T03:32:09.173Z,10.30
2019-02-22T03:37:33.648Z,9.40
2019-02-22T03:42:57.242Z,8.93
2019-02-22T03:48:22.310Z,12.97
2019-02-22T03:54:05.240Z,9.13
2019-02-22T03:59:29.064Z,8.97
2019-02-22T04:04:53.707Z,7.07
2019-02-22T04:10:17.286Z,6.87
2019-02-22T04:15:41.972Z,7.27
2019-02-22T04:21:06.853Z,6.17
2019-02-22T04:26:31.160Z,7.70
2019-02-22T04:31:54.763Z,8.80
2019-02-22T04:37:18.502Z,9.17
2019-02-22T04:42:42.252Z,11.97
2019-02-22T04:48:06.147Z,13.30
2019-02-22T04:53:30.772Z,14.90
2019-02-22T04:58:57.176Z,16.77
2019-02-22T05:04:20.781Z,16.00
2019-02-22T05:09:44.956Z,15.03
2019-02-22T05:15:12.956Z,17.97
2019-02-22T05:20:35.270Z,19.87
2019-02-22T05:25:59.181Z,20.30
2019-02-22T05:31:24.372Z,22.73
2019-02-22T05:36:48.035Z,37.03
2019-02-22T05:42:22.269Z,44.13
2019-02-22T05:47:37.368Z,37.70
2019-02-22T05:53:02.235Z,43.53
2019-02-22T05:58:27.032Z,36.97
2019-02-22T06:03:51.479Z,31.47
2019-02-22T06:09:15.472Z,33.53
2019-02-22T06:14:40.260Z,31.63
2019-02-22T06:20:04.309Z,26.60
2019-02-22T06:25:28.638Z,23.27
2019-02-22T06:30:52.342Z,18.07
2019-02-22T06:36:16.575Z,15.77
2019-02-22T06:41:41.980Z,8.53
2019-02-22T06:47:05.676Z,10.77
2019-02-22T06:52:29.866Z,10.77
2019-02-22T06:57:53.670Z,10.77
2019-02-22T07:03:17.499Z,11.67
2019-02-22T07:08:41.939Z,10.33
2019-02-22T07:14:05.710Z,11.27
2019-02-22T07:19:30.386Z,11.60
2019-02-22T07:24:54.339Z,8.03
2019-02-22T07:30:19.086Z,8.23
2019-02-22T07:35:43.735Z,10.53
2019-02-22T07:41:08.758Z,6.97
2019-02-22T07:46:32.830Z,9.73
2019-02-22T07:51:56.467Z,6.37
2019-02-22T07:57:20.715Z,6.90
2019-02-22T08:02:45.363Z,5.13
2019-02-22T08:08:10.398Z,6.77
2019-02-22T08:13:34.814Z,5.27
2019-02-22T08:19:01.801Z,5.87
2019-02-22T08:24:25.906Z,7.00
2019-02-22T08:29:50.923Z,4.93
2019-02-22T08:35:16.685Z,6.53
2019-02-22T08:40:41.153Z,7.80
2019-02-22T08:46:05.037Z,5.70
2019-02-22T08:51:29.272Z,7.63
2019-02-22T08:56:53.203Z,6.63
2019-02-22T09:02:17.116Z,6.13
2019-02-22T09:07:42.071Z,5.70
2019-02-22T09:13:06.762Z,5.27
2019-02-22T09:18:31.209Z,5.40
2019-02-22T09:23:58.335Z,4.87
2019-02-22T09:29:22.917Z,5.03
2019-02-22T09:34:47.578Z,8.03
2019-02-22T09:40:11.419Z,5.33
2019-02-22T09:45:36.545Z,6.17
2019-02-22T09:51:01.413Z,10.33
2019-02-22T09:56:25.399Z,9.13
2019-02-22T10:01:50.073Z,9.07
2019-02-22T10:07:13.909Z,5.47
2019-02-22T10:12:38.874Z,5.73
2019-02-22T10:18:03.325Z,6.07
2019-02-22T10:23:27.776Z,7.27
2019-02-22T10:28:52.511Z,5.30
2019-02-22T10:34:18.365Z,7.43
2019-02-22T10:39:43.390Z,9.43
2019-02-22T10:45:08.226Z,6.73
2019-02-22T10:50:32.185Z,5.80
2019-02-22T10:55:56.053Z,6.00
2019-02-22T11:01:20.393Z,10.30
2019-02-22T11:06:44.748Z,11.70
2019-02-22T11:12:08.615Z,12.23
2019-02-22T11:17:32.465Z,6.67
2019-02-22T11:22:56.797Z,8.23
2019-02-22T11:28:20.569Z,7.43
2019-02-22T11:33:45.488Z,4.70
2019-02-22T11:39:10.402Z,11.33
2019-02-22T11:44:40.287Z,8.00
2019-02-22T11:50:01.120Z,6.80
2019-02-22T11:55:26.693Z,4.97
2019-02-22T12:00:51.010Z,4.60
2019-02-22T12:06:15.310Z,7.13
2019-02-22T12:11:40.248Z,3.93
2019-02-22T12:17:04.104Z,6.60
2019-02-22T12:22:28.702Z,7.13
2019-02-22T12:27:52.576Z,8.33
2019-02-22T12:33:17.384Z,9.00
2019-02-22T12:38:41.853Z,8.30
2019-02-22T12:44:06.337Z,6.23
2019-02-22T12:49:30.053Z,8.63
2019-02-22T12:54:54.725Z,6.70
2019-02-22T13:00:18.818Z,5.43
2019-02-22T13:05:43.523Z,7.73
2019-02-22T13:11:07.876Z,7.27
2019-02-22T13:16:32.559Z,6.73
2019-02-22T13:21:56.638Z,6.73
2019-02-22T13:27:21.837Z,6.93
2019-02-22T13:32:45.562Z,7.50
2019-02-22T13:38:09.981Z,8.20
2019-02-22T13:43:34.893Z,6.43
2019-02-22T13:48:59.403Z,8.90
2019-02-22T13:54:24.052Z,7.80
2019-02-22T13:59:48.645Z,8.87
2019-02-22T14:05:13.418Z,7.27
2019-02-22T14:10:38.432Z,8.60
2019-02-22T14:16:02.864Z,11.53
2019-02-22T14:21:26.409Z,8.33
2019-02-22T14:26:50.848Z,7.93
2019-02-22T14:32:15.633Z,7.63
2019-02-22T14:37:39.820Z,5.63
2019-02-22T14:43:03.601Z,7.80
2019-02-22T14:48:28.092Z,9.17
2019-02-22T14:53:52.335Z,9.03
2019-02-22T14:59:16.210Z,8.80
2019-02-22T15:04:40.542Z,8.50
2019-02-22T15:10:06.097Z,10.83
2019-02-22T15:16:00.291Z,7.50
2019-02-22T15:21:18.028Z,9.63
2019-02-22T15:26:42.620Z,5.83
2019-02-22T15:32:07.403Z,9.07
2019-02-22T15:37:32.036Z,7.90
2019-02-22T15:42:55.694Z,13.73
2019-02-22T15:48:20.005Z,9.27
2019-02-22T15:53:44.106Z,9.87
2019-02-22T15:59:08.558Z,8.30
2019-02-22T16:04:38.591Z,10.27
2019-02-22T16:10:02.640Z,12.23
2019-02-22T16:15:28.393Z,13.07
2019-02-22T16:20:53.585Z,9.43
2019-02-22T16:26:21.429Z,10.10
2019-02-22T16:31:45.390Z,13.27
2019-02-22T16:37:09.346Z,9.80
2019-02-22T16:42:32.929Z,11.93
2019-02-22T16:47:57.800Z,14.13
2019-02-22T16:53:21.805Z,11.33
2019-02-22T16:58:45.441Z,13.17
2019-02-22T17:04:10.171Z,11.90
2019-02-22T17:09:34.531Z,13.90
2019-02-22T17:14:59.142Z,9.63
2019-02-22T17:20:22.834Z,11.87
2019-02-22T17:25:47.566Z,14.27
2019-02-22T17:31:12.384Z,14.50
2019-02-22T17:36:36.904Z,13.77
2019-02-22T17:42:00.562Z,11.57
2019-02-22T17:47:24.935Z,12.63
2019-02-22T17:52:49.500Z,13.20
2019-02-22T17:58:24.031Z,12.93
2019-02-22T18:03:40.055Z,13.83
2019-02-22T18:09:06.066Z,14.77
2019-02-22T18:14:30.468Z,16.83
2019-02-22T18:19:54.383Z,15.00
2019-02-22T18:25:19.772Z,16.20
2019-02-22T18:30:44.270Z,16.13
2019-02-22T18:36:15.039Z,14.70
2019-02-22T18:41:38.430Z,16.93
2019-02-22T18:47:02.272Z,20.03
2019-02-22T18:58:41.729Z,20.30
2019-02-22T19:04:08.857Z,30.07
2019-02-22T19:09:41.824Z,22.17
2019-02-22T19:15:08.853Z,21.57
2019-02-22T19:20:33.460Z,18.03
2019-02-22T19:26:08.105Z,38.00
2019-02-22T19:31:34.982Z,28.13
2019-02-22T19:36:58.721Z,24.30
2019-02-22T19:42:22.971Z,20.13
2019-02-22T19:47:46.915Z,26.73
2019-02-22T19:53:11.890Z,22.03
2019-02-22T19:58:36.450Z,23.13
2019-02-22T20:04:02.446Z,23.37
2019-02-22T20:09:26.321Z,30.90
2019-02-22T20:14:50.563Z,21.33
2019-02-22T20:20:15.690Z,18.67
2019-02-22T20:25:40.420Z,19.10
2019-02-22T20:31:05.444Z,21.20
2019-02-22T20:36:29.369Z,21.13
2019-02-22T20:41:53.754Z,21.60
2019-02-22T20:47:17.176Z,19.17
2019-02-22T20:52:41.960Z,17.03
2019-02-22T20:58:05.927Z,15.70
2019-02-22T21:03:30.646Z,16.27
2019-02-22T21:08:55.380Z,17.27
2019-02-22T21:14:19.454Z,21.93
2019-02-22T21:19:44.086Z,16.83
2019-02-22T21:25:08.616Z,13.60
2019-02-22T21:30:32.990Z,15.20
2019-02-22T21:35:58.022Z,14.07
2019-02-22T21:41:24.620Z,16.77
2019-02-22T21:46:49.458Z,18.60
2019-02-22T21:52:14.907Z,15.47
2019-02-22T21:57:39.523Z,20.50
2019-02-22T22:03:06.347Z,20.77
2019-02-22T22:08:30.041Z,15.97
2019-02-22T22:13:53.975Z,16.17
2019-02-22T22:19:17.815Z,14.97
2019-02-22T22:24:42.215Z,14.03
2019-02-22T22:30:07.455Z,16.53
2019-02-22T22:35:32.468Z,15.80
2019-02-22T22:40:56.787Z,16.90
2019-02-22T22:46:21.411Z,17.17
2019-02-22T22:51:45.939Z,18.40
2019-02-22T22:57:10.598Z,16.97
2019-02-22T23:02:35.266Z,14.97
2019-02-22T23:07:59.970Z,19.90
2019-02-22T23:13:24.619Z,20.77
2019-02-22T23:18:49.171Z,13.23
2019-02-22T23:24:14.004Z,15.87
2019-02-22T23:29:37.594Z,19.07
2019-02-22T23:35:01.424Z,17.20
2019-02-22T23:40:26.112Z,17.57
2019-02-22T23:45:50.044Z,15.97
2019-02-22T23:51:14.427Z,16.20
2019-02-22T23:56:38.414Z,14.10
